Lanoka Harbor, New Jersey
Current Conditions -  °F | °C
As of 10:15 PM on Wednesday 22 Oct 2014 (Local Time) from KMJX Reporting Station
Overcast Overcast  
Wind Chill: 52°   Ceiling: 2000
Heat Index: 52°   Visibility: 7mi
Dew Point: 48°   Wind: 8mph
Humidity: 88%   Direction: 340°NNW
Pressure: 29.75"   Gusts: NA
Location:  39.87°N, 74.17°W
Report Text: KMJX 230215Z AUTO 34007KT 7SM BKN020 OVC026 11/09 A2975 RMK AO1
Loading
Personal Weather Stations






























Interactive Weather Map
Tropical Storm Tracking
New forecast layout! Learn more

10-Day Weather Forecast

Advertisements
Track Severe Weather on mobile